sensor_id;sensor_type;location;lat;lon;timestamp;temperature;humidity
37642;DHT22;23486;51.956;5.888;2022-09-12T00:00:44;14.50;99.90
37642;DHT22;23486;51.956;5.888;2022-09-12T00:03:10;14.50;99.90
37642;DHT22;23486;51.956;5.888;2022-09-12T00:05:40;14.40;99.90
37642;DHT22;23486;51.956;5.888;2022-09-12T00:08:06;14.40;99.90
37642;DHT22;23486;51.956;5.888;2022-09-12T00:10:32;14.40;99.90
37642;DHT22;23486;51.956;5.888;2022-09-12T00:13:01;14.40;99.90
37642;DHT22;23486;51.956;5.888;2022-09-12T00:15:26;14.40;99.90
37642;DHT22;23486;51.956;5.888;2022-09-12T00:17:52;14.30;99.90
37642;DHT22;23486;51.956;5.888;2022-09-12T00:20:17;14.30;99.90
37642;DHT22;23486;51.956;5.888;2022-09-12T00:22:43;14.30;99.90
37642;DHT22;23486;51.956;5.888;2022-09-12T00:25:15;14.30;99.90
37642;DHT22;23486;51.956;5.888;2022-09-12T00:27:40;14.30;99.90
37642;DHT22;23486;51.956;5.888;2022-09-12T00:30:06;14.30;99.90
37642;DHT22;23486;51.956;5.888;2022-09-12T00:32:32;14.20;99.90
37642;DHT22;23486;51.956;5.888;2022-09-12T00:34:58;14.20;99.90
37642;DHT22;23486;51.956;5.888;2022-09-12T00:37:24;14.20;99.90
37642;DHT22;23486;51.956;5.888;2022-09-12T00:39:49;14.10;99.90
37642;DHT22;23486;51.956;5.888;2022-09-12T00:42:15;14.10;99.90
37642;DHT22;23486;51.956;5.888;2022-09-12T00:44:43;14.10;99.90
37642;DHT22;23486;51.956;5.888;2022-09-12T00:47:20;14.00;99.90
37642;DHT22;23486;51.956;5.888;2022-09-12T00:50:13;14.10;99.90
37642;DHT22;23486;51.956;5.888;2022-09-12T00:55:17;14.00;99.90
37642;DHT22;23486;51.956;5.888;2022-09-12T00:57:56;14.00;99.90
37642;DHT22;23486;51.956;5.888;2022-09-12T01:00:24;13.90;99.90
37642;DHT22;23486;51.956;5.888;2022-09-12T01:02:59;13.90;99.90
37642;DHT22;23486;51.956;5.888;2022-09-12T01:05:28;13.90;99.90
37642;DHT22;23486;51.956;5.888;2022-09-12T01:07:56;13.80;99.90
37642;DHT22;23486;51.956;5.888;2022-09-12T01:10:23;13.80;99.90
37642;DHT22;23486;51.956;5.888;2022-09-12T01:12:49;13.80;99.90
37642;DHT22;23486;51.956;5.888;2022-09-12T01:15:14;13.80;99.90
37642;DHT22;23486;51.956;5.888;2022-09-12T01:31:38;13.60;99.90
37642;DHT22;23486;51.956;5.888;2022-09-12T01:34:24;13.60;99.90
37642;DHT22;23486;51.956;5.888;2022-09-12T01:42:33;13.60;99.90
37642;DHT22;23486;51.956;5.888;2022-09-12T01:45:22;13.60;99.90
37642;DHT22;23486;51.956;5.888;2022-09-12T01:47:59;13.60;99.90
37642;DHT22;23486;51.956;5.888;2022-09-12T01:50:31;13.60;99.90
37642;DHT22;23486;51.956;5.888;2022-09-12T01:53:06;13.50;99.90
37642;DHT22;23486;51.956;5.888;2022-09-12T01:55:41;13.60;99.90
37642;DHT22;23486;51.956;5.888;2022-09-12T02:01:15;13.60;99.90
37642;DHT22;23486;51.956;5.888;2022-09-12T02:03:53;13.50;99.90
37642;DHT22;23486;51.956;5.888;2022-09-12T02:06:29;13.50;99.90
37642;DHT22;23486;51.956;5.888;2022-09-12T02:09:09;13.50;99.90
37642;DHT22;23486;51.956;5.888;2022-09-12T02:11:39;13.40;99.90
37642;DHT22;23486;51.956;5.888;2022-09-12T02:14:11;13.40;99.90
37642;DHT22;23486;51.956;5.888;2022-09-12T02:16:42;13.40;99.90
37642;DHT22;23486;51.956;5.888;2022-09-12T02:19:16;13.40;99.90
37642;DHT22;23486;51.956;5.888;2022-09-12T02:21:54;13.40;99.90
37642;DHT22;23486;51.956;5.888;2022-09-12T02:24:22;13.40;99.90
37642;DHT22;23486;51.956;5.888;2022-09-12T02:26:54;13.40;99.90
37642;DHT22;23486;51.956;5.888;2022-09-12T02:29:22;13.30;99.90
37642;DHT22;23486;51.956;5.888;2022-09-12T02:34:59;13.20;99.90
37642;DHT22;23486;51.956;5.888;2022-09-12T02:40:04;13.20;99.90
37642;DHT22;23486;51.956;5.888;2022-09-12T02:42:31;13.20;99.90
37642;DHT22;23486;51.956;5.888;2022-09-12T02:44:59;13.20;99.90
37642;DHT22;23486;51.956;5.888;2022-09-12T02:47:47;13.20;99.90
37642;DHT22;23486;51.956;5.888;2022-09-12T02:50:14;13.10;99.90
37642;DHT22;23486;51.956;5.888;2022-09-12T02:52:41;13.10;99.90
37642;DHT22;23486;51.956;5.888;2022-09-12T02:55:07;13.10;99.90
37642;DHT22;23486;51.956;5.888;2022-09-12T02:57:36;13.10;99.90
37642;DHT22;23486;51.956;5.888;2022-09-12T03:00:03;13.00;99.90
37642;DHT22;23486;51.956;5.888;2022-09-12T03:05:17;13.00;99.90
37642;DHT22;23486;51.956;5.888;2022-09-12T03:10:31;13.00;99.90
37642;DHT22;23486;51.956;5.888;2022-09-12T03:18:34;13.00;99.90
37642;DHT22;23486;51.956;5.888;2022-09-12T03:26:37;13.00;99.90
37642;DHT22;23486;51.956;5.888;2022-09-12T03:29:06;12.90;99.90
37642;DHT22;23486;51.956;5.888;2022-09-12T03:31:32;12.90;99.90
37642;DHT22;23486;51.956;5.888;2022-09-12T03:34:04;12.90;99.90
37642;DHT22;23486;51.956;5.888;2022-09-12T03:36:30;12.90;99.90
37642;DHT22;23486;51.956;5.888;2022-09-12T03:38:55;12.90;99.90
37642;DHT22;23486;51.956;5.888;2022-09-12T03:41:21;12.90;99.90
37642;DHT22;23486;51.956;5.888;2022-09-12T03:43:47;12.90;99.90
37642;DHT22;23486;51.956;5.888;2022-09-12T03:46:13;12.90;99.90
37642;DHT22;23486;51.956;5.888;2022-09-12T03:48:40;13.00;99.90
37642;DHT22;23486;51.956;5.888;2022-09-12T03:51:07;12.90;99.90
37642;DHT22;23486;51.956;5.888;2022-09-12T03:53:34;12.90;99.90
37642;DHT22;23486;51.956;5.888;2022-09-12T03:56:05;12.90;99.90
37642;DHT22;23486;51.956;5.888;2022-09-12T03:58:30;13.00;99.90
37642;DHT22;23486;51.956;5.888;2022-09-12T04:01:05;12.90;99.90
37642;DHT22;23486;51.956;5.888;2022-09-12T04:03:30;13.00;99.90
37642;DHT22;23486;51.956;5.888;2022-09-12T04:05:56;12.90;99.90
37642;DHT22;23486;51.956;5.888;2022-09-12T04:08:22;13.00;99.90
37642;DHT22;23486;51.956;5.888;2022-09-12T04:10:47;12.90;99.90
37642;DHT22;23486;51.956;5.888;2022-09-12T04:13:13;12.90;99.90
37642;DHT22;23486;51.956;5.888;2022-09-12T04:15:41;12.90;99.90
37642;DHT22;23486;51.956;5.888;2022-09-12T04:18:07;12.90;99.90
37642;DHT22;23486;51.956;5.888;2022-09-12T04:20:32;12.90;99.90
37642;DHT22;23486;51.956;5.888;2022-09-12T04:22:58;12.90;99.90
37642;DHT22;23486;51.956;5.888;2022-09-12T04:25:23;12.90;99.90
37642;DHT22;23486;51.956;5.888;2022-09-12T04:27:49;12.90;99.90
37642;DHT22;23486;51.956;5.888;2022-09-12T04:30:17;12.90;99.90
37642;DHT22;23486;51.956;5.888;2022-09-12T04:32:43;13.00;99.90
37642;DHT22;23486;51.956;5.888;2022-09-12T04:35:08;13.00;99.90
37642;DHT22;23486;51.956;5.888;2022-09-12T04:37:36;13.00;99.90
37642;DHT22;23486;51.956;5.888;2022-09-12T04:40:02;13.10;99.90
37642;DHT22;23486;51.956;5.888;2022-09-12T04:42:28;13.10;99.90
37642;DHT22;23486;51.956;5.888;2022-09-12T04:44:54;13.10;99.90
37642;DHT22;23486;51.956;5.888;2022-09-12T04:47:19;13.10;99.90
37642;DHT22;23486;51.956;5.888;2022-09-12T04:49:45;13.10;99.90
37642;DHT22;23486;51.956;5.888;2022-09-12T04:52:10;13.10;99.90
37642;DHT22;23486;51.956;5.888;2022-09-12T04:54:36;13.20;99.90
37642;DHT22;23486;51.956;5.888;2022-09-12T04:57:02;13.10;99.90
37642;DHT22;23486;51.956;5.888;2022-09-12T04:59:27;13.20;99.90
37642;DHT22;23486;51.956;5.888;2022-09-12T05:01:53;13.10;99.90
37642;DHT22;23486;51.956;5.888;2022-09-12T05:04:19;13.20;99.90
37642;DHT22;23486;51.956;5.888;2022-09-12T05:06:45;13.20;99.90
37642;DHT22;23486;51.956;5.888;2022-09-12T05:09:12;13.20;99.90
37642;DHT22;23486;51.956;5.888;2022-09-12T05:11:40;13.10;99.90
37642;DHT22;23486;51.956;5.888;2022-09-12T05:14:07;13.30;99.90
37642;DHT22;23486;51.956;5.888;2022-09-12T05:16:33;13.20;99.90
37642;DHT22;23486;51.956;5.888;2022-09-12T05:18:58;13.20;99.90
37642;DHT22;23486;51.956;5.888;2022-09-12T05:21:25;13.20;99.90
37642;DHT22;23486;51.956;5.888;2022-09-12T05:23:55;13.30;99.90
37642;DHT22;23486;51.956;5.888;2022-09-12T05:26:22;13.20;99.90
37642;DHT22;23486;51.956;5.888;2022-09-12T05:28:48;13.30;99.90
37642;DHT22;23486;51.956;5.888;2022-09-12T05:31:15;13.30;99.90
37642;DHT22;23486;51.956;5.888;2022-09-12T05:33:43;13.40;99.90
37642;DHT22;23486;51.956;5.888;2022-09-12T05:36:15;13.40;99.90
37642;DHT22;23486;51.956;5.888;2022-09-12T05:38:42;13.50;99.90
37642;DHT22;23486;51.956;5.888;2022-09-12T05:41:19;13.50;99.90
37642;DHT22;23486;51.956;5.888;2022-09-12T05:43:46;13.60;99.90
37642;DHT22;23486;51.956;5.888;2022-09-12T05:46:14;13.50;99.90
37642;DHT22;23486;51.956;5.888;2022-09-12T05:48:42;13.60;99.90
37642;DHT22;23486;51.956;5.888;2022-09-12T05:51:11;13.60;99.90
37642;DHT22;23486;51.956;5.888;2022-09-12T05:53:37;13.60;99.90
37642;DHT22;23486;51.956;5.888;2022-09-12T05:56:12;13.60;99.90
37642;DHT22;23486;51.956;5.888;2022-09-12T05:58:40;13.70;99.90
37642;DHT22;23486;51.956;5.888;2022-09-12T06:01:15;13.70;99.90
37642;DHT22;23486;51.956;5.888;2022-09-12T06:03:46;13.80;99.90
37642;DHT22;23486;51.956;5.888;2022-09-12T06:06:13;13.80;99.90
37642;DHT22;23486;51.956;5.888;2022-09-12T06:08:41;13.80;99.90
37642;DHT22;23486;51.956;5.888;2022-09-12T06:11:09;13.80;99.90
37642;DHT22;23486;51.956;5.888;2022-09-12T06:13:37;13.90;99.90
37642;DHT22;23486;51.956;5.888;2022-09-12T06:16:09;14.00;99.90
37642;DHT22;23486;51.956;5.888;2022-09-12T06:18:36;14.00;99.90
37642;DHT22;23486;51.956;5.888;2022-09-12T06:21:04;14.10;99.90
37642;DHT22;23486;51.956;5.888;2022-09-12T06:23:29;14.10;99.90
37642;DHT22;23486;51.956;5.888;2022-09-12T06:25:55;14.10;99.90
37642;DHT22;23486;51.956;5.888;2022-09-12T06:28:21;14.20;99.90
37642;DHT22;23486;51.956;5.888;2022-09-12T06:30:46;14.20;99.90
37642;DHT22;23486;51.956;5.888;2022-09-12T06:33:13;14.20;99.90
37642;DHT22;23486;51.956;5.888;2022-09-12T06:35:39;14.30;99.90
37642;DHT22;23486;51.956;5.888;2022-09-12T06:38:05;14.30;99.90
37642;DHT22;23486;51.956;5.888;2022-09-12T06:40:31;14.30;99.90
37642;DHT22;23486;51.956;5.888;2022-09-12T06:42:57;14.30;99.90
37642;DHT22;23486;51.956;5.888;2022-09-12T06:45:25;14.20;99.90
37642;DHT22;23486;51.956;5.888;2022-09-12T06:47:51;14.20;99.90
37642;DHT22;23486;51.956;5.888;2022-09-12T06:50:17;14.20;99.90
37642;DHT22;23486;51.956;5.888;2022-09-12T06:52:42;14.20;99.90
37642;DHT22;23486;51.956;5.888;2022-09-12T06:55:09;14.20;99.90
37642;DHT22;23486;51.956;5.888;2022-09-12T06:57:34;14.20;99.90
37642;DHT22;23486;51.956;5.888;2022-09-12T07:00:03;14.20;99.90
37642;DHT22;23486;51.956;5.888;2022-09-12T07:02:29;14.20;99.90
37642;DHT22;23486;51.956;5.888;2022-09-12T07:04:55;14.20;99.90
37642;DHT22;23486;51.956;5.888;2022-09-12T07:07:21;14.30;99.90
37642;DHT22;23486;51.956;5.888;2022-09-12T07:09:47;14.30;99.90
37642;DHT22;23486;51.956;5.888;2022-09-12T07:12:13;14.40;99.90
37642;DHT22;23486;51.956;5.888;2022-09-12T07:14:39;14.40;99.90
37642;DHT22;23486;51.956;5.888;2022-09-12T07:17:05;14.50;99.90
37642;DHT22;23486;51.956;5.888;2022-09-12T07:19:31;14.60;99.90
37642;DHT22;23486;51.956;5.888;2022-09-12T07:21:57;14.70;99.90
37642;DHT22;23486;51.956;5.888;2022-09-12T07:24:22;14.80;99.90
37642;DHT22;23486;51.956;5.888;2022-09-12T07:26:48;14.80;99.90
37642;DHT22;23486;51.956;5.888;2022-09-12T07:29:15;14.80;99.90
37642;DHT22;23486;51.956;5.888;2022-09-12T07:31:41;14.80;99.90
37642;DHT22;23486;51.956;5.888;2022-09-12T07:34:07;14.90;99.90
37642;DHT22;23486;51.956;5.888;2022-09-12T07:36:33;14.90;99.90
37642;DHT22;23486;51.956;5.888;2022-09-12T07:38:58;14.90;99.90
37642;DHT22;23486;51.956;5.888;2022-09-12T07:41:29;15.00;99.90
37642;DHT22;23486;51.956;5.888;2022-09-12T07:43:56;15.10;99.90
37642;DHT22;23486;51.956;5.888;2022-09-12T07:46:23;15.10;99.90
37642;DHT22;23486;51.956;5.888;2022-09-12T07:48:53;15.20;99.90
37642;DHT22;23486;51.956;5.888;2022-09-12T07:51:23;15.30;99.90
37642;DHT22;23486;51.956;5.888;2022-09-12T07:53:49;15.40;99.90
37642;DHT22;23486;51.956;5.888;2022-09-12T07:56:17;15.50;99.90
37642;DHT22;23486;51.956;5.888;2022-09-12T07:58:44;15.50;99.90
37642;DHT22;23486;51.956;5.888;2022-09-12T08:01:12;15.50;99.90
37642;DHT22;23486;51.956;5.888;2022-09-12T08:03:39;15.60;99.90
37642;DHT22;23486;51.956;5.888;2022-09-12T08:06:12;15.50;99.90
37642;DHT22;23486;51.956;5.888;2022-09-12T08:08:38;15.60;99.90
37642;DHT22;23486;51.956;5.888;2022-09-12T08:11:07;15.50;99.90
37642;DHT22;23486;51.956;5.888;2022-09-12T08:13:36;15.50;99.90
37642;DHT22;23486;51.956;5.888;2022-09-12T08:16:05;15.60;99.90
37642;DHT22;23486;51.956;5.888;2022-09-12T08:18:31;15.60;99.90
37642;DHT22;23486;51.956;5.888;2022-09-12T08:20:58;15.70;99.90
37642;DHT22;23486;51.956;5.888;2022-09-12T08:23:25;15.80;99.90
37642;DHT22;23486;51.956;5.888;2022-09-12T08:25:58;15.80;99.90
37642;DHT22;23486;51.956;5.888;2022-09-12T08:28:25;15.90;99.90
37642;DHT22;23486;51.956;5.888;2022-09-12T08:30:52;15.90;99.90
37642;DHT22;23486;51.956;5.888;2022-09-12T08:33:20;16.00;99.90
37642;DHT22;23486;51.956;5.888;2022-09-12T08:35:49;16.10;99.90
37642;DHT22;23486;51.956;5.888;2022-09-12T08:38:14;16.10;99.90
37642;DHT22;23486;51.956;5.888;2022-09-12T08:40:56;16.20;99.90
37642;DHT22;23486;51.956;5.888;2022-09-12T08:46:45;16.30;99.90
37642;DHT22;23486;51.956;5.888;2022-09-12T08:49:24;16.40;99.90
37642;DHT22;23486;51.956;5.888;2022-09-12T08:51:51;16.50;99.90
37642;DHT22;23486;51.956;5.888;2022-09-12T08:54:25;16.50;99.90
37642;DHT22;23486;51.956;5.888;2022-09-12T08:56:58;16.60;99.90
37642;DHT22;23486;51.956;5.888;2022-09-12T08:59:26;16.80;99.90
37642;DHT22;23486;51.956;5.888;2022-09-12T09:01:54;16.90;99.90
37642;DHT22;23486;51.956;5.888;2022-09-12T09:07:42;17.10;99.90
37642;DHT22;23486;51.956;5.888;2022-09-12T09:12:49;17.40;99.90
37642;DHT22;23486;51.956;5.888;2022-09-12T09:18:14;17.60;99.90
37642;DHT22;23486;51.956;5.888;2022-09-12T09:20:50;17.70;99.90
37642;DHT22;23486;51.956;5.888;2022-09-12T09:23:30;17.80;99.90
37642;DHT22;23486;51.956;5.888;2022-09-12T09:31:02;18.10;99.90
37642;DHT22;23486;51.956;5.888;2022-09-12T09:33:33;18.10;99.90
37642;DHT22;23486;51.956;5.888;2022-09-12T09:36:22;18.20;99.90
37642;DHT22;23486;51.956;5.888;2022-09-12T09:39:04;18.30;99.90
37642;DHT22;23486;51.956;5.888;2022-09-12T09:41:47;18.50;99.90
37642;DHT22;23486;51.956;5.888;2022-09-12T09:44:17;18.60;99.90
37642;DHT22;23486;51.956;5.888;2022-09-12T09:46:43;18.70;99.90
37642;DHT22;23486;51.956;5.888;2022-09-12T09:49:11;18.80;99.90
37642;DHT22;23486;51.956;5.888;2022-09-12T09:51:40;18.90;99.90
37642;DHT22;23486;51.956;5.888;2022-09-12T09:54:20;19.00;99.90
37642;DHT22;23486;51.956;5.888;2022-09-12T09:56:46;19.10;99.90
37642;DHT22;23486;51.956;5.888;2022-09-12T09:59:16;19.10;99.90
37642;DHT22;23486;51.956;5.888;2022-09-12T10:01:48;19.20;99.90
37642;DHT22;23486;51.956;5.888;2022-09-12T10:04:19;19.20;99.90
37642;DHT22;23486;51.956;5.888;2022-09-12T10:06:46;19.30;99.90
37642;DHT22;23486;51.956;5.888;2022-09-12T10:09:19;19.50;99.90
37642;DHT22;23486;51.956;5.888;2022-09-12T10:11:46;19.50;99.90
37642;DHT22;23486;51.956;5.888;2022-09-12T10:16:51;19.70;99.90
37642;DHT22;23486;51.956;5.888;2022-09-12T10:19:37;19.80;99.90
37642;DHT22;23486;51.956;5.888;2022-09-12T10:22:04;19.80;99.90
37642;DHT22;23486;51.956;5.888;2022-09-12T10:24:39;19.90;99.90
37642;DHT22;23486;51.956;5.888;2022-09-12T10:29:54;20.00;99.90
37642;DHT22;23486;51.956;5.888;2022-09-12T10:32:40;20.10;99.90
37642;DHT22;23486;51.956;5.888;2022-09-12T10:35:28;20.20;99.90
37642;DHT22;23486;51.956;5.888;2022-09-12T10:38:00;20.20;99.90
37642;DHT22;23486;51.956;5.888;2022-09-12T10:40:39;20.30;99.90
37642;DHT22;23486;51.956;5.888;2022-09-12T10:43:28;20.30;99.90
37642;DHT22;23486;51.956;5.888;2022-09-12T10:45:59;20.40;99.90
37642;DHT22;23486;51.956;5.888;2022-09-12T10:48:48;20.50;99.90
37642;DHT22;23486;51.956;5.888;2022-09-12T10:51:26;20.60;99.90
37642;DHT22;23486;51.956;5.888;2022-09-12T10:53:54;20.70;99.90
37642;DHT22;23486;51.956;5.888;2022-09-12T10:56:56;20.80;99.90
37642;DHT22;23486;51.956;5.888;2022-09-12T11:02:28;21.00;99.90
37642;DHT22;23486;51.956;5.888;2022-09-12T11:05:20;21.10;99.90
37642;DHT22;23486;51.956;5.888;2022-09-12T11:10:46;21.30;99.90
37642;DHT22;23486;51.956;5.888;2022-09-12T11:13:24;21.40;99.90
37642;DHT22;23486;51.956;5.888;2022-09-12T11:29:48;21.70;99.90
37642;DHT22;23486;51.956;5.888;2022-09-12T11:35:24;21.90;99.90
37642;DHT22;23486;51.956;5.888;2022-09-12T11:40:49;22.10;99.90
37642;DHT22;23486;51.956;5.888;2022-09-12T11:43:34;22.20;99.90
37642;DHT22;23486;51.956;5.888;2022-09-12T11:46:45;22.30;99.90
37642;DHT22;23486;51.956;5.888;2022-09-12T11:51:53;22.50;99.90
37642;DHT22;23486;51.956;5.888;2022-09-12T11:54:21;22.60;99.90
37642;DHT22;23486;51.956;5.888;2022-09-12T11:56:52;22.60;99.90
37642;DHT22;23486;51.956;5.888;2022-09-12T12:02:26;22.80;99.90
37642;DHT22;23486;51.956;5.888;2022-09-12T12:07:38;22.90;99.90
37642;DHT22;23486;51.956;5.888;2022-09-12T12:10:07;22.90;99.90
37642;DHT22;23486;51.956;5.888;2022-09-12T12:12:46;22.90;99.90
37642;DHT22;23486;51.956;5.888;2022-09-12T12:15:13;23.00;99.80
37642;DHT22;23486;51.956;5.888;2022-09-12T12:17:40;23.00;99.40
37642;DHT22;23486;51.956;5.888;2022-09-12T12:20:17;23.00;99.40
37642;DHT22;23486;51.956;5.888;2022-09-12T12:22:52;23.10;99.30
37642;DHT22;23486;51.956;5.888;2022-09-12T12:27:54;23.30;98.90
37642;DHT22;23486;51.956;5.888;2022-09-12T12:33:01;23.30;98.50
37642;DHT22;23486;51.956;5.888;2022-09-12T12:35:42;23.30;98.00
37642;DHT22;23486;51.956;5.888;2022-09-12T12:38:33;23.50;97.50
37642;DHT22;23486;51.956;5.888;2022-09-12T12:43:49;23.60;97.20
37642;DHT22;23486;51.956;5.888;2022-09-12T12:46:19;23.60;96.90
37642;DHT22;23486;51.956;5.888;2022-09-12T12:59:50;23.80;95.80
37642;DHT22;23486;51.956;5.888;2022-09-12T13:02:23;23.80;95.70
37642;DHT22;23486;51.956;5.888;2022-09-12T13:04:49;23.90;95.70
37642;DHT22;23486;51.956;5.888;2022-09-12T13:07:26;23.90;95.40
37642;DHT22;23486;51.956;5.888;2022-09-12T13:09:52;23.90;95.40
37642;DHT22;23486;51.956;5.888;2022-09-12T13:12:22;24.00;95.60
37642;DHT22;23486;51.956;5.888;2022-09-12T13:17:34;24.20;95.50
37642;DHT22;23486;51.956;5.888;2022-09-12T13:22:42;24.30;95.10
37642;DHT22;23486;51.956;5.888;2022-09-12T13:25:18;24.40;95.10
37642;DHT22;23486;51.956;5.888;2022-09-12T13:30:47;24.50;94.40
37642;DHT22;23486;51.956;5.888;2022-09-12T13:33:21;24.60;94.40
37642;DHT22;23486;51.956;5.888;2022-09-12T13:38:52;24.60;93.40
37642;DHT22;23486;51.956;5.888;2022-09-12T13:41:52;24.60;93.10
37642;DHT22;23486;51.956;5.888;2022-09-12T13:44:23;24.60;93.10
37642;DHT22;23486;51.956;5.888;2022-09-12T13:46:54;24.60;93.20
37642;DHT22;23486;51.956;5.888;2022-09-12T13:49:33;24.60;93.10
37642;DHT22;23486;51.956;5.888;2022-09-12T13:52:06;24.60;92.90
37642;DHT22;23486;51.956;5.888;2022-09-12T13:54:34;24.60;92.80
37642;DHT22;23486;51.956;5.888;2022-09-12T13:57:03;24.60;92.70
37642;DHT22;23486;51.956;5.888;2022-09-12T13:59:37;24.50;92.70
37642;DHT22;23486;51.956;5.888;2022-09-12T14:02:19;24.50;92.80
37642;DHT22;23486;51.956;5.888;2022-09-12T14:04:50;24.50;92.80
37642;DHT22;23486;51.956;5.888;2022-09-12T14:10:21;24.40;92.70
37642;DHT22;23486;51.956;5.888;2022-09-12T14:12:47;24.40;92.40
37642;DHT22;23486;51.956;5.888;2022-09-12T14:15:20;24.40;92.50
37642;DHT22;23486;51.956;5.888;2022-09-12T14:17:56;24.40;92.40
37642;DHT22;23486;51.956;5.888;2022-09-12T14:20:30;24.50;92.40
37642;DHT22;23486;51.956;5.888;2022-09-12T14:23:03;24.50;92.10
37642;DHT22;23486;51.956;5.888;2022-09-12T14:25:38;24.50;92.20
37642;DHT22;23486;51.956;5.888;2022-09-12T14:28:09;24.50;92.00
37642;DHT22;23486;51.956;5.888;2022-09-12T14:30:36;24.50;91.90
37642;DHT22;23486;51.956;5.888;2022-09-12T14:36:07;24.50;91.00
37642;DHT22;23486;51.956;5.888;2022-09-12T14:38:36;24.50;90.50
37642;DHT22;23486;51.956;5.888;2022-09-12T14:41:09;24.50;91.10
37642;DHT22;23486;51.956;5.888;2022-09-12T14:43:37;24.50;91.30
37642;DHT22;23486;51.956;5.888;2022-09-12T14:46:15;24.60;91.40
37642;DHT22;23486;51.956;5.888;2022-09-12T14:49:08;24.60;91.30
37642;DHT22;23486;51.956;5.888;2022-09-12T14:51:38;24.60;91.10
37642;DHT22;23486;51.956;5.888;2022-09-12T14:54:05;24.60;91.30
37642;DHT22;23486;51.956;5.888;2022-09-12T14:56:42;24.60;91.40
37642;DHT22;23486;51.956;5.888;2022-09-12T14:59:29;24.70;91.20
37642;DHT22;23486;51.956;5.888;2022-09-12T15:04:48;24.70;91.00
37642;DHT22;23486;51.956;5.888;2022-09-12T15:09:48;24.70;91.00
37642;DHT22;23486;51.956;5.888;2022-09-12T15:12:14;24.70;91.00
37642;DHT22;23486;51.956;5.888;2022-09-12T15:14:39;24.60;90.80
37642;DHT22;23486;51.956;5.888;2022-09-12T15:17:05;24.60;90.00
37642;DHT22;23486;51.956;5.888;2022-09-12T15:19:30;24.50;90.40
37642;DHT22;23486;51.956;5.888;2022-09-12T15:21:56;24.50;90.50
37642;DHT22;23486;51.956;5.888;2022-09-12T15:24:22;24.40;90.50
37642;DHT22;23486;51.956;5.888;2022-09-12T15:26:47;24.40;90.30
37642;DHT22;23486;51.956;5.888;2022-09-12T15:29:13;24.40;90.20
37642;DHT22;23486;51.956;5.888;2022-09-12T15:31:39;24.30;90.40
37642;DHT22;23486;51.956;5.888;2022-09-12T15:34:04;24.30;90.50
37642;DHT22;23486;51.956;5.888;2022-09-12T15:36:30;24.30;90.60
37642;DHT22;23486;51.956;5.888;2022-09-12T15:38:56;24.30;90.70
37642;DHT22;23486;51.956;5.888;2022-09-12T15:41:27;24.20;90.70
37642;DHT22;23486;51.956;5.888;2022-09-12T15:43:53;24.20;90.60
37642;DHT22;23486;51.956;5.888;2022-09-12T15:46:19;24.20;90.60
37642;DHT22;23486;51.956;5.888;2022-09-12T15:48:45;24.20;90.40
37642;DHT22;23486;51.956;5.888;2022-09-12T15:51:16;24.10;90.40
37642;DHT22;23486;51.956;5.888;2022-09-12T15:53:43;24.10;90.50
37642;DHT22;23486;51.956;5.888;2022-09-12T15:56:09;24.10;90.50
37642;DHT22;23486;51.956;5.888;2022-09-12T15:58:35;24.10;90.40
37642;DHT22;23486;51.956;5.888;2022-09-12T16:01:01;24.10;90.50
37642;DHT22;23486;51.956;5.888;2022-09-12T16:03:28;24.10;90.40
37642;DHT22;23486;51.956;5.888;2022-09-12T16:06:01;24.20;90.30
37642;DHT22;23486;51.956;5.888;2022-09-12T16:08:27;24.20;90.30
37642;DHT22;23486;51.956;5.888;2022-09-12T16:10:56;24.20;90.50
37642;DHT22;23486;51.956;5.888;2022-09-12T16:13:25;24.20;90.50
37642;DHT22;23486;51.956;5.888;2022-09-12T16:15:54;24.20;90.50
37642;DHT22;23486;51.956;5.888;2022-09-12T16:18:22;24.20;90.50
37642;DHT22;23486;51.956;5.888;2022-09-12T16:20:54;24.20;90.50
37642;DHT22;23486;51.956;5.888;2022-09-12T16:23:20;24.20;90.50
37642;DHT22;23486;51.956;5.888;2022-09-12T16:25:58;24.20;90.60
37642;DHT22;23486;51.956;5.888;2022-09-12T16:28:24;24.10;90.40
37642;DHT22;23486;51.956;5.888;2022-09-12T16:30:58;24.10;90.60
37642;DHT22;23486;51.956;5.888;2022-09-12T16:33:24;24.10;90.60
37642;DHT22;23486;51.956;5.888;2022-09-12T16:35:50;24.00;90.60
37642;DHT22;23486;51.956;5.888;2022-09-12T16:38:20;24.00;90.60
37642;DHT22;23486;51.956;5.888;2022-09-12T16:40:46;23.90;90.50
37642;DHT22;23486;51.956;5.888;2022-09-12T16:43:11;23.90;90.60
37642;DHT22;23486;51.956;5.888;2022-09-12T16:45:38;23.80;90.70
37642;DHT22;23486;51.956;5.888;2022-09-12T16:48:04;23.80;90.80
37642;DHT22;23486;51.956;5.888;2022-09-12T16:50:29;23.60;90.90
37642;DHT22;23486;51.956;5.888;2022-09-12T16:52:55;23.40;91.10
37642;DHT22;23486;51.956;5.888;2022-09-12T16:55:20;23.40;91.20
37642;DHT22;23486;51.956;5.888;2022-09-12T16:57:47;23.30;91.30
37642;DHT22;23486;51.956;5.888;2022-09-12T17:00:14;23.20;91.50
37642;DHT22;23486;51.956;5.888;2022-09-12T17:02:39;23.10;91.60
37642;DHT22;23486;51.956;5.888;2022-09-12T17:05:05;23.00;91.80
37642;DHT22;23486;51.956;5.888;2022-09-12T17:07:31;22.90;91.90
37642;DHT22;23486;51.956;5.888;2022-09-12T17:09:57;22.80;92.10
37642;DHT22;23486;51.956;5.888;2022-09-12T17:12:23;22.80;92.30
37642;DHT22;23486;51.956;5.888;2022-09-12T17:14:48;22.70;92.40
37642;DHT22;23486;51.956;5.888;2022-09-12T17:17:14;22.60;92.60
37642;DHT22;23486;51.956;5.888;2022-09-12T17:19:39;22.50;92.70
37642;DHT22;23486;51.956;5.888;2022-09-12T17:22:05;22.50;92.80
37642;DHT22;23486;51.956;5.888;2022-09-12T17:24:31;22.40;92.90
37642;DHT22;23486;51.956;5.888;2022-09-12T17:26:57;22.40;93.00
37642;DHT22;23486;51.956;5.888;2022-09-12T17:29:23;22.30;93.30
37642;DHT22;23486;51.956;5.888;2022-09-12T17:31:49;22.20;93.50
37642;DHT22;23486;51.956;5.888;2022-09-12T17:34:15;22.10;93.80
37642;DHT22;23486;51.956;5.888;2022-09-12T17:36:45;22.00;94.00
37642;DHT22;23486;51.956;5.888;2022-09-12T17:39:13;22.00;94.20
37642;DHT22;23486;51.956;5.888;2022-09-12T17:41:39;21.90;94.30
37642;DHT22;23486;51.956;5.888;2022-09-12T17:44:12;21.90;94.50
37642;DHT22;23486;51.956;5.888;2022-09-12T17:46:39;21.80;94.70
37642;DHT22;23486;51.956;5.888;2022-09-12T17:49:11;21.70;95.10
37642;DHT22;23486;51.956;5.888;2022-09-12T17:51:37;21.70;95.10
37642;DHT22;23486;51.956;5.888;2022-09-12T17:54:08;21.60;95.30
37642;DHT22;23486;51.956;5.888;2022-09-12T17:56:41;21.60;95.30
37642;DHT22;23486;51.956;5.888;2022-09-12T17:59:08;21.50;95.50
37642;DHT22;23486;51.956;5.888;2022-09-12T18:01:35;21.50;95.60
37642;DHT22;23486;51.956;5.888;2022-09-12T18:04:19;21.40;95.70
37642;DHT22;23486;51.956;5.888;2022-09-12T18:06:45;21.40;95.90
37642;DHT22;23486;51.956;5.888;2022-09-12T18:09:17;21.40;95.90
37642;DHT22;23486;51.956;5.888;2022-09-12T18:11:44;21.40;95.90